sensor_id;sensor_type;location;lat;lon;timestamp;P1;durP1;ratioP1;P2;durP2;ratioP2
27161;SDS011;54464;50.558;9.704;2023-03-01T00:01:13;15.60;;;12.40;;
27161;SDS011;54464;50.558;9.704;2023-03-01T00:03:41;15.20;;;12.30;;
27161;SDS011;54464;50.558;9.704;2023-03-01T00:06:07;17.63;;;12.57;;
27161;SDS011;54464;50.558;9.704;2023-03-01T00:08:32;16.53;;;12.13;;
27161;SDS011;54464;50.558;9.704;2023-03-01T00:11:06;16.70;;;12.60;;
27161;SDS011;54464;50.558;9.704;2023-03-01T00:13:34;15.70;;;12.53;;
27161;SDS011;54464;50.558;9.704;2023-03-01T00:16:04;15.20;;;12.00;;
27161;SDS011;54464;50.558;9.704;2023-03-01T00:18:35;16.40;;;12.20;;
27161;SDS011;54464;50.558;9.704;2023-03-01T00:21:01;17.40;;;11.90;;
27161;SDS011;54464;50.558;9.704;2023-03-01T00:23:27;18.43;;;13.17;;
27161;SDS011;54464;50.558;9.704;2023-03-01T00:25:53;16.30;;;12.30;;
27161;SDS011;54464;50.558;9.704;2023-03-01T00:28:19;17.67;;;12.63;;
27161;SDS011;54464;50.558;9.704;2023-03-01T00:30:45;18.77;;;12.93;;
27161;SDS011;54464;50.558;9.704;2023-03-01T00:33:11;17.93;;;13.20;;
27161;SDS011;54464;50.558;9.704;2023-03-01T00:35:37;18.57;;;13.53;;
27161;SDS011;54464;50.558;9.704;2023-03-01T00:38:03;17.07;;;13.13;;
27161;SDS011;54464;50.558;9.704;2023-03-01T00:40:30;16.87;;;13.17;;
27161;SDS011;54464;50.558;9.704;2023-03-01T00:42:57;17.57;;;12.70;;
27161;SDS011;54464;50.558;9.704;2023-03-01T00:45:23;17.87;;;12.97;;
27161;SDS011;54464;50.558;9.704;2023-03-01T00:47:49;16.00;;;12.13;;
27161;SDS011;54464;50.558;9.704;2023-03-01T00:50:16;16.93;;;12.93;;
27161;SDS011;54464;50.558;9.704;2023-03-01T00:52:42;19.27;;;13.60;;
27161;SDS011;54464;50.558;9.704;2023-03-01T00:55:09;17.97;;;12.73;;
27161;SDS011;54464;50.558;9.704;2023-03-01T00:57:35;18.10;;;13.40;;
27161;SDS011;54464;50.558;9.704;2023-03-01T01:00:01;18.30;;;13.03;;
27161;SDS011;54464;50.558;9.704;2023-03-01T01:02:28;18.23;;;12.53;;
27161;SDS011;54464;50.558;9.704;2023-03-01T01:04:53;17.67;;;12.30;;
27161;SDS011;54464;50.558;9.704;2023-03-01T01:07:19;16.90;;;12.60;;
27161;SDS011;54464;50.558;9.704;2023-03-01T01:09:48;17.77;;;12.47;;
27161;SDS011;54464;50.558;9.704;2023-03-01T01:12:13;19.27;;;12.67;;
27161;SDS011;54464;50.558;9.704;2023-03-01T01:14:39;17.63;;;12.87;;
27161;SDS011;54464;50.558;9.704;2023-03-01T01:17:04;16.07;;;12.43;;
27161;SDS011;54464;50.558;9.704;2023-03-01T01:19:30;17.20;;;12.30;;
27161;SDS011;54464;50.558;9.704;2023-03-01T01:21:56;16.50;;;12.43;;
27161;SDS011;54464;50.558;9.704;2023-03-01T01:24:22;18.87;;;13.83;;
27161;SDS011;54464;50.558;9.704;2023-03-01T01:26:47;16.23;;;12.27;;
27161;SDS011;54464;50.558;9.704;2023-03-01T01:29:13;14.40;;;11.73;;
27161;SDS011;54464;50.558;9.704;2023-03-01T01:31:40;17.70;;;12.80;;
27161;SDS011;54464;50.558;9.704;2023-03-01T01:34:07;16.93;;;12.70;;
27161;SDS011;54464;50.558;9.704;2023-03-01T01:36:37;18.87;;;12.67;;
27161;SDS011;54464;50.558;9.704;2023-03-01T01:39:02;16.20;;;12.47;;
27161;SDS011;54464;50.558;9.704;2023-03-01T01:41:28;17.10;;;12.97;;
27161;SDS011;54464;50.558;9.704;2023-03-01T01:49:27;17.57;;;12.83;;
27161;SDS011;54464;50.558;9.704;2023-03-01T01:52:04;19.00;;;13.43;;
27161;SDS011;54464;50.558;9.704;2023-03-01T01:57:15;17.83;;;12.50;;
27161;SDS011;54464;50.558;9.704;2023-03-01T01:59:47;17.40;;;12.20;;
27161;SDS011;54464;50.558;9.704;2023-03-01T02:02:19;17.03;;;12.47;;
27161;SDS011;54464;50.558;9.704;2023-03-01T02:04:46;17.20;;;12.50;;
27161;SDS011;54464;50.558;9.704;2023-03-01T02:07:16;18.27;;;12.43;;
27161;SDS011;54464;50.558;9.704;2023-03-01T02:09:45;15.57;;;12.03;;
27161;SDS011;54464;50.558;9.704;2023-03-01T02:12:13;17.90;;;12.53;;
27161;SDS011;54464;50.558;9.704;2023-03-01T02:14:42;18.50;;;13.27;;
27161;SDS011;54464;50.558;9.704;2023-03-01T02:17:07;20.80;;;13.47;;
27161;SDS011;54464;50.558;9.704;2023-03-01T02:19:47;17.47;;;12.60;;
27161;SDS011;54464;50.558;9.704;2023-03-01T02:22:28;17.10;;;12.13;;
27161;SDS011;54464;50.558;9.704;2023-03-01T02:25:03;17.53;;;12.43;;
27161;SDS011;54464;50.558;9.704;2023-03-01T02:30:15;19.43;;;13.37;;
27161;SDS011;54464;50.558;9.704;2023-03-01T02:32:41;17.17;;;12.60;;
27161;SDS011;54464;50.558;9.704;2023-03-01T02:35:12;17.63;;;12.60;;
27161;SDS011;54464;50.558;9.704;2023-03-01T02:37:39;17.60;;;13.00;;
27161;SDS011;54464;50.558;9.704;2023-03-01T02:40:08;16.87;;;12.40;;
27161;SDS011;54464;50.558;9.704;2023-03-01T02:43:15;16.27;;;12.40;;
27161;SDS011;54464;50.558;9.704;2023-03-01T02:45:35;18.30;;;13.33;;
27161;SDS011;54464;50.558;9.704;2023-03-01T02:48:00;17.13;;;12.33;;
27161;SDS011;54464;50.558;9.704;2023-03-01T02:55:47;15.63;;;12.43;;
27161;SDS011;54464;50.558;9.704;2023-03-01T02:58:13;17.47;;;12.47;;
27161;SDS011;54464;50.558;9.704;2023-03-01T03:00:40;17.23;;;12.13;;
27161;SDS011;54464;50.558;9.704;2023-03-01T03:03:15;16.93;;;12.30;;
27161;SDS011;54464;50.558;9.704;2023-03-01T03:05:44;16.87;;;12.17;;
27161;SDS011;54464;50.558;9.704;2023-03-01T03:08:09;15.67;;;11.63;;
27161;SDS011;54464;50.558;9.704;2023-03-01T03:10:37;14.83;;;11.60;;
27161;SDS011;54464;50.558;9.704;2023-03-01T03:13:05;15.40;;;11.43;;
27161;SDS011;54464;50.558;9.704;2023-03-01T03:15:33;15.97;;;12.23;;
27161;SDS011;54464;50.558;9.704;2023-03-01T03:18:01;16.77;;;12.83;;
27161;SDS011;54464;50.558;9.704;2023-03-01T03:20:28;18.13;;;12.63;;
27161;SDS011;54464;50.558;9.704;2023-03-01T03:22:55;15.57;;;11.07;;
27161;SDS011;54464;50.558;9.704;2023-03-01T03:25:23;15.80;;;11.40;;
27161;SDS011;54464;50.558;9.704;2023-03-01T03:27:50;16.20;;;11.97;;
27161;SDS011;54464;50.558;9.704;2023-03-01T03:30:22;17.67;;;11.40;;
27161;SDS011;54464;50.558;9.704;2023-03-01T03:32:49;15.97;;;11.77;;
27161;SDS011;54464;50.558;9.704;2023-03-01T03:35:18;16.43;;;11.93;;
27161;SDS011;54464;50.558;9.704;2023-03-01T03:37:49;15.50;;;11.93;;
27161;SDS011;54464;50.558;9.704;2023-03-01T03:40:41;16.70;;;11.80;;
27161;SDS011;54464;50.558;9.704;2023-03-01T03:43:19;15.80;;;11.50;;
27161;SDS011;54464;50.558;9.704;2023-03-01T03:45:46;17.70;;;12.03;;
27161;SDS011;54464;50.558;9.704;2023-03-01T03:48:13;14.87;;;11.87;;
27161;SDS011;54464;50.558;9.704;2023-03-01T03:50:40;18.40;;;11.90;;
27161;SDS011;54464;50.558;9.704;2023-03-01T03:53:07;16.17;;;11.27;;
27161;SDS011;54464;50.558;9.704;2023-03-01T03:55:34;19.53;;;11.57;;
27161;SDS011;54464;50.558;9.704;2023-03-01T03:58:04;17.27;;;11.90;;
27161;SDS011;54464;50.558;9.704;2023-03-01T04:00:38;17.83;;;11.43;;
27161;SDS011;54464;50.558;9.704;2023-03-01T04:03:08;15.27;;;11.37;;
27161;SDS011;54464;50.558;9.704;2023-03-01T04:05:35;18.00;;;12.33;;
27161;SDS011;54464;50.558;9.704;2023-03-01T04:08:02;19.47;;;12.47;;
27161;SDS011;54464;50.558;9.704;2023-03-01T04:10:33;17.83;;;12.13;;
27161;SDS011;54464;50.558;9.704;2023-03-01T04:13:02;17.37;;;11.87;;
27161;SDS011;54464;50.558;9.704;2023-03-01T04:15:29;16.87;;;12.27;;
27161;SDS011;54464;50.558;9.704;2023-03-01T04:17:55;19.13;;;13.07;;
27161;SDS011;54464;50.558;9.704;2023-03-01T04:20:22;16.87;;;12.67;;
27161;SDS011;54464;50.558;9.704;2023-03-01T04:22:57;17.10;;;12.70;;
27161;SDS011;54464;50.558;9.704;2023-03-01T04:25:41;19.73;;;13.07;;
27161;SDS011;54464;50.558;9.704;2023-03-01T04:28:10;18.10;;;12.83;;
27161;SDS011;54464;50.558;9.704;2023-03-01T04:30:36;17.93;;;12.37;;
27161;SDS011;54464;50.558;9.704;2023-03-01T04:33:04;17.13;;;13.40;;
27161;SDS011;54464;50.558;9.704;2023-03-01T04:35:31;18.03;;;12.97;;
27161;SDS011;54464;50.558;9.704;2023-03-01T04:37:58;18.90;;;13.17;;
27161;SDS011;54464;50.558;9.704;2023-03-01T04:40:24;19.07;;;12.43;;
27161;SDS011;54464;50.558;9.704;2023-03-01T04:42:50;19.70;;;13.13;;
27161;SDS011;54464;50.558;9.704;2023-03-01T04:45:16;19.87;;;13.10;;
27161;SDS011;54464;50.558;9.704;2023-03-01T04:47:42;18.37;;;12.37;;
27161;SDS011;54464;50.558;9.704;2023-03-01T04:50:09;17.97;;;12.87;;
27161;SDS011;54464;50.558;9.704;2023-03-01T04:52:36;19.00;;;12.90;;
27161;SDS011;54464;50.558;9.704;2023-03-01T04:55:02;19.13;;;13.50;;
27161;SDS011;54464;50.558;9.704;2023-03-01T04:57:28;18.37;;;13.03;;
27161;SDS011;54464;50.558;9.704;2023-03-01T04:59:54;18.37;;;12.83;;
27161;SDS011;54464;50.558;9.704;2023-03-01T05:02:20;18.90;;;12.83;;
27161;SDS011;54464;50.558;9.704;2023-03-01T05:04:46;16.13;;;11.70;;
27161;SDS011;54464;50.558;9.704;2023-03-01T05:07:11;17.37;;;12.70;;
27161;SDS011;54464;50.558;9.704;2023-03-01T05:09:38;17.17;;;13.03;;
27161;SDS011;54464;50.558;9.704;2023-03-01T05:12:03;19.67;;;12.67;;
27161;SDS011;54464;50.558;9.704;2023-03-01T05:14:29;20.80;;;13.87;;
27161;SDS011;54464;50.558;9.704;2023-03-01T05:16:55;19.90;;;13.73;;
27161;SDS011;54464;50.558;9.704;2023-03-01T05:19:28;19.43;;;13.93;;
27161;SDS011;54464;50.558;9.704;2023-03-01T05:21:56;20.33;;;14.37;;
27161;SDS011;54464;50.558;9.704;2023-03-01T05:24:32;19.80;;;13.50;;
27161;SDS011;54464;50.558;9.704;2023-03-01T05:26:59;19.57;;;13.80;;
27161;SDS011;54464;50.558;9.704;2023-03-01T05:29:26;21.80;;;13.77;;
27161;SDS011;54464;50.558;9.704;2023-03-01T05:31:57;20.37;;;14.30;;
27161;SDS011;54464;50.558;9.704;2023-03-01T05:34:24;21.37;;;14.40;;
27161;SDS011;54464;50.558;9.704;2023-03-01T05:36:51;19.10;;;13.60;;
27161;SDS011;54464;50.558;9.704;2023-03-01T05:39:21;22.53;;;14.27;;
27161;SDS011;54464;50.558;9.704;2023-03-01T05:41:51;21.27;;;14.30;;
27161;SDS011;54464;50.558;9.704;2023-03-01T05:44:18;19.80;;;14.10;;
27161;SDS011;54464;50.558;9.704;2023-03-01T05:46:44;19.60;;;14.30;;
27161;SDS011;54464;50.558;9.704;2023-03-01T05:49:10;22.27;;;13.63;;
27161;SDS011;54464;50.558;9.704;2023-03-01T05:51:38;22.33;;;14.10;;
27161;SDS011;54464;50.558;9.704;2023-03-01T05:54:04;19.30;;;14.23;;
27161;SDS011;54464;50.558;9.704;2023-03-01T05:56:32;18.40;;;13.60;;
27161;SDS011;54464;50.558;9.704;2023-03-01T05:58:59;19.87;;;13.47;;
27161;SDS011;54464;50.558;9.704;2023-03-01T06:01:25;20.23;;;14.37;;
27161;SDS011;54464;50.558;9.704;2023-03-01T06:03:50;21.17;;;14.33;;
27161;SDS011;54464;50.558;9.704;2023-03-01T06:06:16;24.93;;;14.53;;
27161;SDS011;54464;50.558;9.704;2023-03-01T06:08:42;20.60;;;14.17;;
27161;SDS011;54464;50.558;9.704;2023-03-01T06:11:07;21.40;;;14.27;;
27161;SDS011;54464;50.558;9.704;2023-03-01T06:13:33;21.60;;;14.77;;
27161;SDS011;54464;50.558;9.704;2023-03-01T06:15:59;23.17;;;14.60;;
27161;SDS011;54464;50.558;9.704;2023-03-01T06:18:24;20.60;;;14.50;;
27161;SDS011;54464;50.558;9.704;2023-03-01T06:20:53;19.97;;;14.27;;
27161;SDS011;54464;50.558;9.704;2023-03-01T06:23:20;23.27;;;15.43;;
27161;SDS011;54464;50.558;9.704;2023-03-01T06:25:46;26.60;;;16.23;;
27161;SDS011;54464;50.558;9.704;2023-03-01T06:28:11;22.80;;;15.63;;
27161;SDS011;54464;50.558;9.704;2023-03-01T06:30:37;24.80;;;15.73;;
27161;SDS011;54464;50.558;9.704;2023-03-01T06:33:02;23.20;;;15.57;;
27161;SDS011;54464;50.558;9.704;2023-03-01T06:35:28;22.00;;;15.00;;
27161;SDS011;54464;50.558;9.704;2023-03-01T06:37:55;25.30;;;17.33;;
27161;SDS011;54464;50.558;9.704;2023-03-01T06:40:22;24.07;;;14.57;;
27161;SDS011;54464;50.558;9.704;2023-03-01T06:42:49;24.03;;;16.20;;
27161;SDS011;54464;50.558;9.704;2023-03-01T06:45:15;25.93;;;16.33;;
27161;SDS011;54464;50.558;9.704;2023-03-01T06:47:42;25.13;;;15.90;;
27161;SDS011;54464;50.558;9.704;2023-03-01T06:50:08;24.47;;;16.13;;
27161;SDS011;54464;50.558;9.704;2023-03-01T06:52:34;23.57;;;15.83;;
27161;SDS011;54464;50.558;9.704;2023-03-01T06:55:00;25.43;;;16.27;;
27161;SDS011;54464;50.558;9.704;2023-03-01T06:57:25;23.27;;;15.40;;
27161;SDS011;54464;50.558;9.704;2023-03-01T06:59:51;22.27;;;15.33;;
27161;SDS011;54464;50.558;9.704;2023-03-01T07:02:17;25.87;;;17.00;;
27161;SDS011;54464;50.558;9.704;2023-03-01T07:04:42;22.33;;;15.93;;
27161;SDS011;54464;50.558;9.704;2023-03-01T07:07:08;21.67;;;15.97;;
27161;SDS011;54464;50.558;9.704;2023-03-01T07:09:34;25.13;;;16.57;;
27161;SDS011;54464;50.558;9.704;2023-03-01T07:11:59;25.57;;;15.90;;
27161;SDS011;54464;50.558;9.704;2023-03-01T07:14:25;24.87;;;16.00;;
27161;SDS011;54464;50.558;9.704;2023-03-01T07:16:54;23.40;;;15.77;;
27161;SDS011;54464;50.558;9.704;2023-03-01T07:19:20;22.97;;;15.97;;
27161;SDS011;54464;50.558;9.704;2023-03-01T07:21:46;25.80;;;16.70;;
27161;SDS011;54464;50.558;9.704;2023-03-01T07:24:12;23.43;;;16.07;;
27161;SDS011;54464;50.558;9.704;2023-03-01T07:26:38;23.70;;;16.53;;
27161;SDS011;54464;50.558;9.704;2023-03-01T07:29:05;25.53;;;16.67;;
27161;SDS011;54464;50.558;9.704;2023-03-01T07:31:31;25.63;;;17.10;;
27161;SDS011;54464;50.558;9.704;2023-03-01T07:33:57;24.27;;;17.50;;
27161;SDS011;54464;50.558;9.704;2023-03-01T07:36:23;22.30;;;16.07;;
27161;SDS011;54464;50.558;9.704;2023-03-01T07:38:49;23.23;;;16.23;;
27161;SDS011;54464;50.558;9.704;2023-03-01T07:41:15;23.60;;;15.17;;
27161;SDS011;54464;50.558;9.704;2023-03-01T07:43:41;26.40;;;16.53;;
27161;SDS011;54464;50.558;9.704;2023-03-01T07:46:06;23.87;;;16.63;;
27161;SDS011;54464;50.558;9.704;2023-03-01T07:48:32;22.70;;;14.80;;
27161;SDS011;54464;50.558;9.704;2023-03-01T07:50:58;20.60;;;14.43;;
27161;SDS011;54464;50.558;9.704;2023-03-01T07:53:24;20.07;;;14.30;;
27161;SDS011;54464;50.558;9.704;2023-03-01T07:55:59;19.30;;;13.50;;
27161;SDS011;54464;50.558;9.704;2023-03-01T07:58:29;19.53;;;13.97;;
27161;SDS011;54464;50.558;9.704;2023-03-01T08:00:55;18.10;;;12.87;;
27161;SDS011;54464;50.558;9.704;2023-03-01T08:03:21;18.40;;;13.30;;
27161;SDS011;54464;50.558;9.704;2023-03-01T08:05:46;19.07;;;13.03;;
27161;SDS011;54464;50.558;9.704;2023-03-01T08:08:12;18.33;;;13.77;;
27161;SDS011;54464;50.558;9.704;2023-03-01T08:10:37;20.80;;;13.63;;
27161;SDS011;54464;50.558;9.704;2023-03-01T08:13:03;19.63;;;13.53;;
27161;SDS011;54464;50.558;9.704;2023-03-01T08:15:29;17.97;;;13.13;;
27161;SDS011;54464;50.558;9.704;2023-03-01T08:17:54;21.70;;;13.23;;
27161;SDS011;54464;50.558;9.704;2023-03-01T08:20:20;18.97;;;13.37;;
27161;SDS011;54464;50.558;9.704;2023-03-01T08:22:46;16.00;;;13.10;;
27161;SDS011;54464;50.558;9.704;2023-03-01T08:25:11;16.37;;;12.40;;
27161;SDS011;54464;50.558;9.704;2023-03-01T08:27:37;18.20;;;13.07;;
27161;SDS011;54464;50.558;9.704;2023-03-01T08:30:03;17.03;;;13.37;;
27161;SDS011;54464;50.558;9.704;2023-03-01T08:32:29;22.07;;;15.27;;
27161;SDS011;54464;50.558;9.704;2023-03-01T08:34:54;18.37;;;15.37;;
27161;SDS011;54464;50.558;9.704;2023-03-01T08:37:20;20.37;;;15.00;;
27161;SDS011;54464;50.558;9.704;2023-03-01T08:39:46;19.30;;;15.57;;
27161;SDS011;54464;50.558;9.704;2023-03-01T08:42:12;19.60;;;15.80;;
27161;SDS011;54464;50.558;9.704;2023-03-01T08:44:37;18.73;;;14.40;;
27161;SDS011;54464;50.558;9.704;2023-03-01T08:47:03;17.97;;;13.80;;
27161;SDS011;54464;50.558;9.704;2023-03-01T08:49:29;17.83;;;13.83;;
27161;SDS011;54464;50.558;9.704;2023-03-01T08:51:57;17.50;;;13.63;;
27161;SDS011;54464;50.558;9.704;2023-03-01T08:54:23;15.90;;;13.17;;
27161;SDS011;54464;50.558;9.704;2023-03-01T08:56:49;16.20;;;12.97;;
27161;SDS011;54464;50.558;9.704;2023-03-01T08:59:15;19.37;;;13.80;;
27161;SDS011;54464;50.558;9.704;2023-03-01T09:01:42;14.47;;;12.53;;
27161;SDS011;54464;50.558;9.704;2023-03-01T09:04:11;13.67;;;11.93;;
27161;SDS011;54464;50.558;9.704;2023-03-01T09:06:37;14.93;;;12.50;;
27161;SDS011;54464;50.558;9.704;2023-03-01T09:09:04;13.13;;;11.73;;
27161;SDS011;54464;50.558;9.704;2023-03-01T09:11:30;15.70;;;12.20;;
27161;SDS011;54464;50.558;9.704;2023-03-01T09:13:56;14.90;;;11.87;;
27161;SDS011;54464;50.558;9.704;2023-03-01T09:16:23;12.50;;;11.13;;
27161;SDS011;54464;50.558;9.704;2023-03-01T09:18:50;13.10;;;10.60;;
27161;SDS011;54464;50.558;9.704;2023-03-01T09:21:17;13.40;;;11.03;;
27161;SDS011;54464;50.558;9.704;2023-03-01T09:23:44;12.07;;;10.37;;
27161;SDS011;54464;50.558;9.704;2023-03-01T09:26:12;13.77;;;11.13;;
27161;SDS011;54464;50.558;9.704;2023-03-01T09:28:44;14.20;;;10.77;;
27161;SDS011;54464;50.558;9.704;2023-03-01T09:31:11;14.33;;;11.70;;
27161;SDS011;54464;50.558;9.704;2023-03-01T09:33:38;12.17;;;10.43;;
27161;SDS011;54464;50.558;9.704;2023-03-01T09:36:05;12.33;;;10.40;;
27161;SDS011;54464;50.558;9.704;2023-03-01T09:38:32;14.40;;;11.57;;
27161;SDS011;54464;50.558;9.704;2023-03-01T09:40:59;13.97;;;11.00;;
27161;SDS011;54464;50.558;9.704;2023-03-01T09:46:05;12.97;;;11.13;;
27161;SDS011;54464;50.558;9.704;2023-03-01T09:48:39;14.90;;;10.63;;
27161;SDS011;54464;50.558;9.704;2023-03-01T09:51:19;13.10;;;10.87;;
27161;SDS011;54464;50.558;9.704;2023-03-01T09:53:52;14.47;;;11.50;;
27161;SDS011;54464;50.558;9.704;2023-03-01T09:56:20;16.23;;;11.73;;
27161;SDS011;54464;50.558;9.704;2023-03-01T10:01:46;14.50;;;11.77;;
27161;SDS011;54464;50.558;9.704;2023-03-01T10:12:57;16.30;;;12.57;;
27161;SDS011;54464;50.558;9.704;2023-03-01T10:15:33;13.77;;;11.73;;
27161;SDS011;54464;50.558;9.704;2023-03-01T10:18:05;13.40;;;10.80;;
27161;SDS011;54464;50.558;9.704;2023-03-01T10:20:46;13.87;;;11.17;;
27161;SDS011;54464;50.558;9.704;2023-03-01T10:23:18;14.53;;;11.30;;
27161;SDS011;54464;50.558;9.704;2023-03-01T10:31:01;13.17;;;11.57;;
27161;SDS011;54464;50.558;9.704;2023-03-01T10:33:29;13.83;;;11.93;;
27161;SDS011;54464;50.558;9.704;2023-03-01T10:35:57;15.20;;;11.73;;
27161;SDS011;54464;50.558;9.704;2023-03-01T10:38:23;14.87;;;12.07;;
27161;SDS011;54464;50.558;9.704;2023-03-01T10:41:10;13.23;;;11.23;;
27161;SDS011;54464;50.558;9.704;2023-03-01T10:43:43;13.37;;;11.33;;
27161;SDS011;54464;50.558;9.704;2023-03-01T10:49:05;14.33;;;11.63;;
27161;SDS011;54464;50.558;9.704;2023-03-01T10:51:42;14.90;;;12.17;;
27161;SDS011;54464;50.558;9.704;2023-03-01T10:56:52;13.30;;;11.90;;
27161;SDS011;54464;50.558;9.704;2023-03-01T10:59:24;13.40;;;12.00;;
27161;SDS011;54464;50.558;9.704;2023-03-01T11:04:59;13.00;;;11.27;;
27161;SDS011;54464;50.558;9.704;2023-03-01T11:07:51;12.53;;;11.23;;
27161;SDS011;54464;50.558;9.704;2023-03-01T11:10:31;12.83;;;11.50;;
27161;SDS011;54464;50.558;9.704;2023-03-01T11:16:01;13.00;;;11.70;;
27161;SDS011;54464;50.558;9.704;2023-03-01T11:18:30;11.57;;;10.37;;
27161;SDS011;54464;50.558;9.704;2023-03-01T11:20:56;12.47;;;11.27;;
27161;SDS011;54464;50.558;9.704;2023-03-01T11:23:25;13.23;;;11.93;;
27161;SDS011;54464;50.558;9.704;2023-03-01T11:25:58;13.30;;;11.87;;
27161;SDS011;54464;50.558;9.704;2023-03-01T11:28:28;12.87;;;11.60;;
27161;SDS011;54464;50.558;9.704;2023-03-01T11:31:04;13.87;;;12.47;;
27161;SDS011;54464;50.558;9.704;2023-03-01T11:33:43;13.23;;;11.83;;
27161;SDS011;54464;50.558;9.704;2023-03-01T11:36:18;13.90;;;11.50;;
27161;SDS011;54464;50.558;9.704;2023-03-01T11:41:48;12.73;;;11.53;;
27161;SDS011;54464;50.558;9.704;2023-03-01T11:44:25;12.50;;;11.40;;
27161;SDS011;54464;50.558;9.704;2023-03-01T11:52:55;12.87;;;11.67;;
27161;SDS011;54464;50.558;9.704;2023-03-01T12:09:48;12.83;;;11.63;;
27161;SDS011;54464;50.558;9.704;2023-03-01T12:15:24;12.97;;;11.67;;
27161;SDS011;54464;50.558;9.704;2023-03-01T12:18:22;12.77;;;11.57;;
27161;SDS011;54464;50.558;9.704;2023-03-01T12:21:13;13.20;;;12.00;;
27161;SDS011;54464;50.558;9.704;2023-03-01T12:24:06;12.87;;;11.70;;
27161;SDS011;54464;50.558;9.704;2023-03-01T12:29:16;12.70;;;11.60;;
27161;SDS011;54464;50.558;9.704;2023-03-01T12:37:21;12.77;;;11.53;;
27161;SDS011;54464;50.558;9.704;2023-03-01T12:40:11;12.77;;;11.53;;
27161;SDS011;54464;50.558;9.704;2023-03-01T12:45:17;12.77;;;11.47;;
27161;SDS011;54464;50.558;9.704;2023-03-01T12:48:09;11.77;;;10.57;;
27161;SDS011;54464;50.558;9.704;2023-03-01T12:50:50;12.27;;;11.07;;
27161;SDS011;54464;50.558;9.704;2023-03-01T12:53:24;12.43;;;11.13;;
27161;SDS011;54464;50.558;9.704;2023-03-01T12:56:02;12.60;;;11.30;;
27161;SDS011;54464;50.558;9.704;2023-03-01T13:01:45;12.37;;;11.17;;
27161;SDS011;54464;50.558;9.704;2023-03-01T13:07:28;12.27;;;11.07;;
27161;SDS011;54464;50.558;9.704;2023-03-01T13:13:11;12.63;;;11.33;;
27161;SDS011;54464;50.558;9.704;2023-03-01T13:15:47;13.20;;;11.80;;
27161;SDS011;54464;50.558;9.704;2023-03-01T13:25:40;14.90;;;12.23;;
27161;SDS011;54464;50.558;9.704;2023-03-01T13:33:48;14.37;;;12.87;;
27161;SDS011;54464;50.558;9.704;2023-03-01T13:42:32;14.87;;;12.50;;
27161;SDS011;54464;50.558;9.704;2023-03-01T13:49:36;15.57;;;13.97;;
27161;SDS011;54464;50.558;9.704;2023-03-01T13:54:55;14.13;;;12.70;;
27161;SDS011;54464;50.558;9.704;2023-03-01T13:57:24;15.17;;;13.53;;
27161;SDS011;54464;50.558;9.704;2023-03-01T13:59:54;15.20;;;13.60;;
27161;SDS011;54464;50.558;9.704;2023-03-01T14:02:21;14.33;;;12.93;;
27161;SDS011;54464;50.558;9.704;2023-03-01T14:04:57;15.00;;;13.30;;
27161;SDS011;54464;50.558;9.704;2023-03-01T14:07:24;14.97;;;13.40;;
27161;SDS011;54464;50.558;9.704;2023-03-01T14:09:54;14.10;;;12.70;;
27161;SDS011;54464;50.558;9.704;2023-03-01T14:15:27;14.97;;;12.50;;
27161;SDS011;54464;50.558;9.704;2023-03-01T14:17:59;14.77;;;13.10;;
27161;SDS011;54464;50.558;9.704;2023-03-01T14:20:42;14.83;;;12.80;;
27161;SDS011;54464;50.558;9.704;2023-03-01T14:23:15;14.20;;;12.70;;
27161;SDS011;54464;50.558;9.704;2023-03-01T14:25:48;15.20;;;12.80;;
27161;SDS011;54464;50.558;9.704;2023-03-01T14:28:23;15.17;;;12.80;;
27161;SDS011;54464;50.558;9.704;2023-03-01T14:30:55;16.87;;;12.97;;
27161;SDS011;54464;50.558;9.704;2023-03-01T14:38:30;14.53;;;11.80;;
27161;SDS011;54464;50.558;9.704;2023-03-01T14:40:58;15.37;;;12.40;;
27161;SDS011;54464;50.558;9.704;2023-03-01T14:43:27;13.47;;;11.07;;
27161;SDS011;54464;50.558;9.704;2023-03-01T14:45:54;16.03;;;12.43;;
27161;SDS011;54464;50.558;9.704;2023-03-01T14:48:20;14.87;;;11.80;;
27161;SDS011;54464;50.558;9.704;2023-03-01T14:50:46;14.10;;;11.57;;
27161;SDS011;54464;50.558;9.704;2023-03-01T14:53:17;13.67;;;11.70;;
27161;SDS011;54464;50.558;9.704;2023-03-01T14:55:47;14.97;;;11.97;;
27161;SDS011;54464;50.558;9.704;2023-03-01T14:58:18;16.23;;;11.80;;
27161;SDS011;54464;50.558;9.704;2023-03-01T15:00:53;14.83;;;12.33;;
27161;SDS011;54464;50.558;9.704;2023-03-01T15:06:02;13.77;;;11.17;;
27161;SDS011;54464;50.558;9.704;2023-03-01T15:08:29;12.90;;;11.33;;
27161;SDS011;54464;50.558;9.704;2023-03-01T15:13:40;14.03;;;11.13;;
27161;SDS011;54464;50.558;9.704;2023-03-01T15:16:15;15.80;;;11.40;;
27161;SDS011;54464;50.558;9.704;2023-03-01T15:18:47;15.53;;;11.53;;
27161;SDS011;54464;50.558;9.704;2023-03-01T15:21:32;14.40;;;11.23;;
27161;SDS011;54464;50.558;9.704;2023-03-01T15:24:15;14.73;;;11.17;;
27161;SDS011;54464;50.558;9.704;2023-03-01T15:26:52;13.17;;;11.13;;
27161;SDS011;54464;50.558;9.704;2023-03-01T15:29:26;13.03;;;10.97;;
27161;SDS011;54464;50.558;9.704;2023-03-01T15:32:03;13.43;;;11.77;;
27161;SDS011;54464;50.558;9.704;2023-03-01T15:34:48;12.87;;;11.50;;
27161;SDS011;54464;50.558;9.704;2023-03-01T15:40:27;15.13;;;11.80;;
27161;SDS011;54464;50.558;9.704;2023-03-01T15:43:00;14.00;;;11.03;;
27161;SDS011;54464;50.558;9.704;2023-03-01T15:45:28;14.00;;;11.20;;
27161;SDS011;54464;50.558;9.704;2023-03-01T15:47:58;14.73;;;11.63;;
27161;SDS011;54464;50.558;9.704;2023-03-01T15:50:30;13.17;;;11.13;;
27161;SDS011;54464;50.558;9.704;2023-03-01T15:52:58;12.57;;;11.03;;
27161;SDS011;54464;50.558;9.704;2023-03-01T15:55:26;14.67;;;10.77;;
27161;SDS011;54464;50.558;9.704;2023-03-01T15:58:05;13.60;;;11.00;;
27161;SDS011;54464;50.558;9.704;2023-03-01T16:00:35;13.37;;;11.07;;
27161;SDS011;54464;50.558;9.704;2023-03-01T16:03:01;13.10;;;10.53;;
27161;SDS011;54464;50.558;9.704;2023-03-01T16:05:28;13.53;;;10.77;;
27161;SDS011;54464;50.558;9.704;2023-03-01T16:07:56;12.30;;;10.77;;
27161;SDS011;54464;50.558;9.704;2023-03-01T16:10:22;13.37;;;10.53;;
27161;SDS011;54464;50.558;9.704;2023-03-01T16:12:48;13.10;;;10.67;;
27161;SDS011;54464;50.558;9.704;2023-03-01T16:15:27;13.53;;;9.90;;
27161;SDS011;54464;50.558;9.704;2023-03-01T16:17:54;12.87;;;10.83;;
27161;SDS011;54464;50.558;9.704;2023-03-01T16:20:20;13.70;;;10.30;;
27161;SDS011;54464;50.558;9.704;2023-03-01T16:22:46;12.57;;;10.17;;
27161;SDS011;54464;50.558;9.704;2023-03-01T16:25:12;14.03;;;10.60;;
27161;SDS011;54464;50.558;9.704;2023-03-01T16:27:47;14.23;;;11.40;;
27161;SDS011;54464;50.558;9.704;2023-03-01T16:30:14;12.30;;;10.53;;
27161;SDS011;54464;50.558;9.704;2023-03-01T16:32:43;13.37;;;11.03;;
27161;SDS011;54464;50.558;9.704;2023-03-01T16:35:10;13.43;;;10.37;;
27161;SDS011;54464;50.558;9.704;2023-03-01T16:37:37;12.67;;;10.23;;
27161;SDS011;54464;50.558;9.704;2023-03-01T16:40:04;13.00;;;10.50;;
27161;SDS011;54464;50.558;9.704;2023-03-01T16:42:35;15.10;;;11.20;;
27161;SDS011;54464;50.558;9.704;2023-03-01T16:45:02;13.77;;;10.80;;
27161;SDS011;54464;50.558;9.704;2023-03-01T16:47:28;13.97;;;11.20;;
27161;SDS011;54464;50.558;9.704;2023-03-01T16:49:54;15.70;;;11.40;;